Time;durP1;ratioP1;P1;durP2;ratioP2;P2;SDS_P1;SDS_P2;PMS_P1;PMS_P2;Temp;Humidity;BMP_temperature;BMP_pressure;BME280_temperature;BME280_humidity;BME280_pressure;Samples;Min_cycle;Max_cycle;Signal;HPM_P1;HPM_P2
2023/06/02 00:01:54;;;;;;;11.57;3.92;;;;;;;11.61;100.00;101991.59;5269385;28;20020;-68
2023/06/02 00:04:26;;;;;;;9.77;3.85;;;;;;;11.61;100.00;101992.44;5269467;28;20130;-68
2023/06/02 00:07:03;;;;;;;9.65;4.13;;;;;;;11.61;100.00;101991.59;5265606;28;20041;-68
2023/06/02 00:09:42;;;;;;;10.20;4.00;;;;;;;11.60;100.00;101997.88;5263571;28;20033;-68
2023/06/02 00:12:13;;;;;;;10.05;3.70;;;;;;;11.55;100.00;101996.38;5265878;28;20035;-68
2023/06/02 00:14:44;;;;;;;9.13;3.60;;;;;;;11.52;100.00;101991.19;5259740;28;20400;-68
2023/06/02 00:17:18;;;;;;;7.40;3.78;;;;;;;11.53;100.00;101995.59;5265898;28;20044;-68
2023/06/02 00:19:50;;;;;;;13.02;3.97;;;;;;;11.55;100.00;101992.84;5265020;28;20110;-68
2023/06/02 00:22:22;;;;;;;9.52;4.05;;;;;;;11.54;100.00;101989.31;5278504;28;20137;-68
2023/06/02 00:24:53;;;;;;;9.13;3.72;;;;;;;11.54;100.00;101993.78;5272014;28;20082;-68
2023/06/02 00:27:24;;;;;;;10.00;4.13;;;;;;;11.49;100.00;101990.56;5261996;28;20575;-68
2023/06/02 00:29:56;;;;;;;15.05;4.68;;;;;;;11.48;100.00;101989.66;5264345;28;20033;-68
2023/06/02 00:32:27;;;;;;;9.75;4.65;;;;;;;11.46;100.00;101991.59;5265282;28;20036;-68
2023/06/02 00:34:59;;;;;;;10.50;4.85;;;;;;;11.48;100.00;101987.00;5268644;28;20511;-68
2023/06/02 00:37:30;;;;;;;11.35;4.22;;;;;;;11.47;100.00;101990.66;5263592;28;20471;-68
2023/06/02 00:40:02;;;;;;;11.90;3.83;;;;;;;11.41;100.00;101990.16;5263677;28;20032;-68
2023/06/02 00:42:34;;;;;;;12.77;3.78;;;;;;;11.37;100.00;101993.03;5267576;28;20036;-68
2023/06/02 00:45:06;;;;;;;10.25;3.58;;;;;;;11.38;100.00;101984.03;5277198;28;20403;-68
2023/06/02 00:47:37;;;;;;;9.75;3.70;;;;;;;11.33;100.00;101987.94;5279066;28;20028;-68
2023/06/02 00:50:09;;;;;;;14.43;4.18;;;;;;;11.32;100.00;101984.44;5278461;28;20032;-68
2023/06/02 00:52:41;;;;;;;12.35;3.72;;;;;;;11.29;100.00;101981.06;5275526;28;20036;-69
2023/06/02 00:55:12;;;;;;;10.80;3.85;;;;;;;11.24;100.00;101973.34;5275837;28;20070;-68
2023/06/02 00:57:44;;;;;;;8.15;3.58;;;;;;;11.21;100.00;101983.38;5266201;28;20487;-68
2023/06/02 01:00:16;;;;;;;10.48;3.78;;;;;;;11.22;100.00;101987.75;5263700;28;20127;-68
2023/06/02 01:02:47;;;;;;;7.95;3.50;;;;;;;11.21;100.00;101992.22;5259315;28;20035;-68
2023/06/02 01:05:20;;;;;;;9.57;3.50;;;;;;;11.16;100.00;101989.84;5255631;28;20360;-68
2023/06/02 01:08:03;;;;;;;9.57;3.75;;;;;;;11.19;100.00;101989.66;5254342;28;21535;-68
2023/06/02 01:10:37;;;;;;;9.37;3.70;;;;;;;11.19;100.00;101995.00;5268765;28;20028;-68
2023/06/02 01:13:09;;;;;;;12.60;4.00;;;;;;;11.21;100.00;101992.22;5264676;28;20021;-68
2023/06/02 01:15:40;;;;;;;15.35;3.90;;;;;;;11.12;100.00;101993.66;5264205;28;20047;-68
2023/06/02 01:18:14;;;;;;;12.13;4.72;;;;;;;11.10;100.00;101990.22;5266818;28;20029;-68
2023/06/02 01:20:51;;;;;;;10.55;3.85;;;;;;;11.08;100.00;101991.25;5266316;28;20533;-68
2023/06/02 01:23:30;;;;;;;11.77;3.80;;;;;;;11.03;100.00;101994.22;5265790;28;20107;-68
2023/06/02 01:26:05;;;;;;;12.00;3.67;;;;;;;11.05;100.00;101989.63;5265106;28;20272;-68
2023/06/02 01:28:36;;;;;;;14.05;3.95;;;;;;;11.00;100.00;101999.72;5263277;28;20382;-68
2023/06/02 01:31:17;;;;;;;13.27;4.18;;;;;;;11.02;100.00;102002.31;5261722;28;20032;-68
2023/06/02 01:34:13;;;;;;;12.68;4.03;;;;;;;11.02;100.00;101999.63;5263278;28;20047;-68
2023/06/02 01:36:48;;;;;;;11.27;3.40;;;;;;;10.86;100.00;102005.03;5259071;28;20043;-68
2023/06/02 01:39:22;;;;;;;12.85;4.07;;;;;;;10.85;100.00;101996.16;5261808;28;20389;-68
2023/06/02 01:41:55;;;;;;;13.80;3.83;;;;;;;10.85;100.00;101992.63;5271142;28;20042;-68
2023/06/02 01:44:28;;;;;;;16.33;4.55;;;;;;;10.88;100.00;101995.13;5267525;28;20386;-68
2023/06/02 01:46:59;;;;;;;12.65;4.25;;;;;;;10.89;100.00;101991.50;5268597;28;20026;-68
2023/06/02 01:49:31;;;;;;;11.25;3.40;;;;;;;10.89;100.00;101991.50;5266199;28;20111;-68
2023/06/02 01:52:02;;;;;;;10.65;4.13;;;;;;;10.95;100.00;101980.47;5262190;28;20189;-68
2023/06/02 01:54:34;;;;;;;12.35;3.70;;;;;;;10.99;100.00;101987.34;5264903;28;20033;-68
2023/06/02 01:57:07;;;;;;;12.00;3.85;;;;;;;11.06;100.00;101986.00;5264678;28;20160;-68
2023/06/02 01:59:38;;;;;;;10.10;3.45;;;;;;;10.94;100.00;101978.75;5262425;28;20039;-68
2023/06/02 02:02:09;;;;;;;12.80;4.43;;;;;;;11.01;100.00;101989.91;5265120;28;20024;-68
2023/06/02 02:04:41;;;;;;;7.63;3.40;;;;;;;10.97;100.00;101987.44;5270180;28;20413;-68
2023/06/02 02:07:12;;;;;;;12.52;3.92;;;;;;;11.10;100.00;101986.69;5266580;28;20041;-68
2023/06/02 02:09:45;;;;;;;13.77;4.10;;;;;;;11.06;100.00;101988.66;5268247;28;20516;-68
2023/06/02 02:12:17;;;;;;;13.80;4.45;;;;;;;11.03;100.00;101986.19;5267447;28;20054;-68
2023/06/02 02:14:56;;;;;;;9.70;3.40;;;;;;;11.02;100.00;101984.47;5270788;28;20077;-68
2023/06/02 02:17:28;;;;;;;13.77;3.67;;;;;;;11.03;100.00;101988.88;5273080;28;20032;-68
2023/06/02 02:20:00;;;;;;;11.15;3.55;;;;;;;11.04;100.00;101993.25;5282810;28;20458;-68
2023/06/02 02:22:32;;;;;;;9.68;3.17;;;;;;;10.98;100.00;101985.59;5269546;28;20031;-68
2023/06/02 02:25:04;;;;;;;12.35;3.15;;;;;;;10.96;100.00;101987.50;5264086;28;20044;-68
2023/06/02 02:27:36;;;;;;;11.40;3.45;;;;;;;11.02;100.00;101987.13;5275180;28;20158;-68
2023/06/02 02:30:08;;;;;;;16.27;4.78;;;;;;;10.98;100.00;101991.81;5271701;28;20144;-68
2023/06/02 02:32:43;;;;;;;11.43;3.78;;;;;;;11.08;100.00;101991.25;5264219;28;20020;-68
2023/06/02 02:35:14;;;;;;;11.23;3.47;;;;;;;10.97;100.00;101983.91;5264809;28;20035;-68
2023/06/02 02:37:46;;;;;;;10.35;3.25;;;;;;;11.03;100.00;101982.69;5267077;28;20052;-68
2023/06/02 02:40:17;;;;;;;13.07;4.18;;;;;;;11.01;100.00;101981.88;5264556;28;20039;-68
2023/06/02 02:42:48;;;;;;;15.90;4.10;;;;;;;11.02;100.00;101987.13;5268539;28;20457;-68
2023/06/02 02:45:20;;;;;;;12.85;3.70;;;;;;;10.98;100.00;101978.44;5261451;28;20035;-68
2023/06/02 02:47:51;;;;;;;9.85;3.50;;;;;;;10.99;100.00;101982.00;5267938;28;20131;-68
2023/06/02 02:50:23;;;;;;;11.85;3.75;;;;;;;10.97;100.00;101973.22;5268789;28;20036;-68
2023/06/02 02:52:55;;;;;;;10.25;3.47;;;;;;;11.03;100.00;101980.88;5267435;28;20028;-68
2023/06/02 02:55:26;;;;;;;11.73;3.70;;;;;;;11.03;100.00;101972.00;5270068;28;20063;-68
2023/06/02 02:58:01;;;;;;;18.85;4.43;;;;;;;10.99;100.00;101968.66;5277454;28;20473;-68
2023/06/02 03:00:32;;;;;;;15.40;4.40;;;;;;;10.96;100.00;101971.50;5263575;28;20643;-68
2023/06/02 03:03:05;;;;;;;13.63;4.03;;;;;;;10.98;100.00;101974.94;5269440;28;20448;-68
2023/06/02 03:05:37;;;;;;;11.32;4.88;;;;;;;10.96;100.00;101971.50;5266707;28;20131;-68
2023/06/02 03:08:09;;;;;;;13.20;4.05;;;;;;;11.00;100.00;101975.69;5282031;28;20029;-68
2023/06/02 03:10:41;;;;;;;12.20;4.00;;;;;;;10.97;100.00;101974.06;5266980;28;20133;-68
2023/06/02 03:13:12;;;;;;;12.80;4.50;;;;;;;10.98;100.00;101977.59;5265112;28;20123;-68
2023/06/02 03:15:43;;;;;;;13.65;4.10;;;;;;;11.01;100.00;101984.56;5267570;28;20040;-68
2023/06/02 03:18:16;;;;;;;13.52;4.25;;;;;;;10.98;100.00;101980.28;5270962;28;20032;-68
2023/06/02 03:20:48;;;;;;;12.27;3.70;;;;;;;10.92;100.00;101978.81;5271916;28;20035;-68
2023/06/02 03:23:19;;;;;;;9.75;3.95;;;;;;;10.96;100.00;101984.84;5274365;28;20032;-69
2023/06/02 03:25:51;;;;;;;17.63;5.15;;;;;;;10.95;100.00;101980.47;5270052;28;20133;-68
2023/06/02 03:28:23;;;;;;;11.07;4.03;;;;;;;10.95;100.00;101985.81;5268144;28;20036;-68
2023/06/02 03:30:54;;;;;;;10.27;3.88;;;;;;;10.96;100.00;101982.16;5272164;28;20382;-68
2023/06/02 03:33:26;;;;;;;12.88;4.38;;;;;;;10.98;100.00;101990.94;5270741;28;20379;-68
2023/06/02 03:35:57;;;;;;;12.38;4.20;;;;;;;10.91;100.00;101987.81;5262998;28;20398;-68
2023/06/02 03:38:28;;;;;;;11.40;3.80;;;;;;;10.87;100.00;101996.91;5265283;28;20036;-68
2023/06/02 03:41:00;;;;;;;13.70;4.20;;;;;;;10.81;100.00;101991.09;5271768;28;20028;-68
2023/06/02 03:43:31;;;;;;;15.70;3.70;;;;;;;10.82;100.00;102003.50;5268188;28;20090;-68
2023/06/02 03:46:02;;;;;;;12.73;3.63;;;;;;;10.79;100.00;101996.53;5263503;28;20044;-68
2023/06/02 03:48:34;;;;;;;12.40;3.67;;;;;;;10.80;100.00;101995.59;5261285;28;20036;-68
2023/06/02 03:51:05;;;;;;;9.77;3.70;;;;;;;10.81;100.00;101997.28;5259628;28;20029;-68
2023/06/02 03:53:37;;;;;;;12.23;4.28;;;;;;;10.77;100.00;101996.59;5262160;28;20040;-69
2023/06/02 03:56:08;;;;;;;13.15;3.80;;;;;;;10.84;100.00;101999.78;5267340;28;20447;-68
2023/06/02 03:58:40;;;;;;;13.48;3.88;;;;;;;10.92;100.00;102002.00;5263963;28;20064;-68
2023/06/02 04:01:12;;;;;;;10.40;3.75;;;;;;;10.92;100.00;102002.00;5260204;28;20059;-68
2023/06/02 04:03:43;;;;;;;10.73;4.28;;;;;;;10.90;100.00;102003.91;5259921;28;20032;-68
2023/06/02 04:06:15;;;;;;;15.82;4.15;;;;;;;10.93;100.00;102003.72;5260233;28;20084;-68
2023/06/02 04:08:47;;;;;;;14.18;4.28;;;;;;;10.88;100.00;102012.00;5265507;28;20028;-68
2023/06/02 04:11:22;;;;;;;12.10;3.60;;;;;;;10.90;100.00;102012.78;5262215;28;20596;-68
2023/06/02 04:13:53;;;;;;;14.70;3.88;;;;;;;10.87;100.00;102009.41;5262932;28;20036;-68
2023/06/02 04:16:24;;;;;;;11.93;3.58;;;;;;;10.82;100.00;102009.69;5264735;28;20385;-68
2023/06/02 04:18:56;;;;;;;10.20;3.65;;;;;;;10.77;100.00;102012.63;5268250;28;20423;-68
2023/06/02 04:21:27;;;;;;;11.65;3.70;;;;;;;10.78;100.00;102003.69;5266201;28;20328;-68
2023/06/02 04:23:59;;;;;;;13.02;4.18;;;;;;;10.74;100.00;102014.63;5262401;28;20024;-68
2023/06/02 04:26:30;;;;;;;11.57;3.33;;;;;;;10.67;100.00;102007.94;5262729;28;20510;-68
2023/06/02 04:29:02;;;;;;;12.63;4.10;;;;;;;10.64;100.00;102016.09;5265342;28;20119;-68
2023/06/02 04:31:49;;;;;;;7.93;3.13;;;;;;;10.68;100.00;102001.63;5265608;28;20051;-68
2023/06/02 04:34:21;;;;;;;9.90;3.50;;;;;;;10.61;100.00;102008.28;5262634;28;20039;-68
2023/06/02 04:36:52;;;;;;;9.30;3.38;;;;;;;10.60;100.00;102002.06;5265929;28;20040;-68
2023/06/02 04:39:24;;;;;;;11.48;3.60;;;;;;;10.55;100.00;102004.16;5266286;28;20501;-68
2023/06/02 04:41:56;;;;;;;10.07;3.67;;;;;;;10.58;100.00;102002.19;5269747;28;20021;-68
2023/06/02 04:44:28;;;;;;;7.90;3.10;;;;;;;10.56;100.00;102011.22;5275602;28;20042;-68
2023/06/02 04:46:59;;;;;;;8.73;3.42;;;;;;;10.56;100.00;102000.53;5257473;28;20040;-68
2023/06/02 04:49:31;;;;;;;10.75;4.03;;;;;;;10.55;100.00;102009.50;5271818;28;20040;-68
2023/06/02 04:52:07;;;;;;;14.98;4.05;;;;;;;10.57;100.00;101996.94;5266659;28;20075;-68
2023/06/02 04:54:38;;;;;;;15.85;3.60;;;;;;;10.53;100.00;102011.41;5260975;28;20028;-68
2023/06/02 04:57:10;;;;;;;9.15;3.50;;;;;;;10.51;100.00;102011.50;5267002;28;20664;-68
2023/06/02 04:59:41;;;;;;;12.20;3.15;;;;;;;10.54;100.00;102013.09;5264812;28;20067;-68
2023/06/02 05:02:13;;;;;;;14.13;3.80;;;;;;;10.56;100.00;102022.75;5266231;28;20036;-68
2023/06/02 05:04:44;;;;;;;12.82;3.42;;;;;;;10.54;100.00;102029.13;5268638;28;20386;-68
2023/06/02 05:07:16;;;;;;;13.75;3.28;;;;;;;10.60;100.00;102020.75;5270243;28;20047;-68
2023/06/02 05:09:47;;;;;;;9.23;3.38;;;;;;;10.67;100.00;102026.63;5278240;28;20067;-68
2023/06/02 05:12:19;;;;;;;9.68;3.03;;;;;;;10.75;100.00;102025.19;5271506;28;20081;-68
2023/06/02 05:14:50;;;;;;;9.82;2.95;;;;;;;10.68;100.00;102026.53;5267202;28;20436;-68
2023/06/02 05:17:24;;;;;;;10.50;3.30;;;;;;;10.68;100.00;102029.19;5270360;28;20455;-68
2023/06/02 05:19:55;;;;;;;14.77;3.53;;;;;;;10.77;100.00;102028.63;5270450;28;20390;-68
2023/06/02 05:22:27;;;;;;;10.90;2.80;;;;;;;10.72;100.00;102033.41;5273579;28;20361;-68
2023/06/02 05:24:59;;;;;;;12.23;3.08;;;;;;;10.66;100.00;102039.09;5267017;28;20027;-68
2023/06/02 05:27:30;;;;;;;10.70;3.17;;;;;;;10.65;100.00;102041.84;5276835;28;20066;-68
2023/06/02 05:30:02;;;;;;;9.55;3.25;;;;;;;10.62;100.00;102036.69;5278805;28;20478;-68
2023/06/02 05:32:33;;;;;;;13.35;3.10;;;;;;;10.59;100.00;102029.72;5280237;28;20036;-68
2023/06/02 05:35:05;;;;;;;12.23;2.90;;;;;;;10.58;100.00;102041.34;5277347;28;20479;-68
2023/06/02 05:37:36;;;;;;;7.75;3.08;;;;;;;10.62;100.00;102031.34;5270804;28;20032;-68
2023/06/02 05:40:08;;;;;;;10.50;2.78;;;;;;;10.58;100.00;102028.88;5278951;28;20033;-68
2023/06/02 05:42:39;;;;;;;12.85;2.80;;;;;;;10.61;100.00;102033.16;5271203;28;20034;-68
2023/06/02 05:45:11;;;;;;;9.65;2.80;;;;;;;10.66;100.00;102027.53;5277701;28;20032;-68
2023/06/02 05:47:42;;;;;;;15.77;2.92;;;;;;;10.68;100.00;102034.53;5279429;28;20089;-68
2023/06/02 05:50:13;;;;;;;11.77;2.95;;;;;;;10.68;100.00;102033.66;5279283;28;20032;-68
2023/06/02 05:52:45;;;;;;;9.90;2.42;;;;;;;10.72;100.00;102038.75;5264722;28;20086;-68
2023/06/02 05:55:17;;;;;;;13.32;3.47;;;;;;;10.78;100.00;102034.88;5269483;28;20547;-68
2023/06/02 05:57:48;;;;;;;9.13;2.72;;;;;;;10.76;100.00;102034.94;5273911;28;20446;-68
2023/06/02 06:00:20;;;;;;;12.90;2.97;;;;;;;10.86;100.00;102037.09;5281780;28;20040;-68
2023/06/02 06:02:55;;;;;;;11.93;2.70;;;;;;;10.90;100.00;102038.63;5268446;28;20253;-68
2023/06/02 06:05:26;;;;;;;10.70;3.03;;;;;;;11.04;100.00;102038.66;5278909;28;20044;-68
2023/06/02 06:07:58;;;;;;;11.05;3.30;;;;;;;11.00;100.00;102034.44;5273080;28;20025;-68
2023/06/02 06:10:29;;;;;;;9.82;2.92;;;;;;;11.06;100.00;102034.06;5275072;28;20561;-68
2023/06/02 06:13:00;;;;;;;13.07;3.00;;;;;;;11.08;100.00;102029.50;5273415;28;20437;-68
2023/06/02 06:15:32;;;;;;;12.95;3.17;;;;;;;11.07;100.00;102035.81;5273232;28;20071;-68
2023/06/02 06:18:04;;;;;;;13.27;3.95;;;;;;;11.03;100.00;102036.09;5274087;28;20093;-68
2023/06/02 06:20:35;;;;;;;14.60;3.30;;;;;;;11.09;100.00;102035.72;5283098;28;20028;-68
2023/06/02 06:23:06;;;;;;;12.75;2.75;;;;;;;11.05;100.00;102035.03;5274318;28;20086;-68
2023/06/02 06:25:38;;;;;;;14.50;3.13;;;;;;;11.10;100.00;102046.31;5269796;28;20078;-68
2023/06/02 06:28:09;;;;;;;13.02;2.90;;;;;;;11.09;100.00;102046.41;5273896;28;20122;-68
2023/06/02 06:30:41;;;;;;;15.85;2.60;;;;;;;11.07;100.00;102038.47;5279569;28;20059;-68
2023/06/02 06:33:12;;;;;;;13.43;2.72;;;;;;;11.14;100.00;102045.19;5271412;28;20037;-68
2023/06/02 06:35:44;;;;;;;11.43;2.58;;;;;;;11.25;100.00;102043.66;5281607;28;20158;-69
2023/06/02 06:38:15;;;;;;;10.88;2.65;;;;;;;11.26;100.00;102048.06;5271285;28;20028;-68
2023/06/02 06:40:47;;;;;;;12.55;2.75;;;;;;;11.40;100.00;102056.09;5276393;28;20533;-68
2023/06/02 06:43:19;;;;;;;12.82;2.78;;;;;;;11.36;100.00;102046.56;5272694;28;20031;-68
2023/06/02 06:45:50;;;;;;;15.13;2.97;;;;;;;11.32;100.00;102047.69;5270391;28;20483;-68
2023/06/02 06:48:21;;;;;;;12.55;3.28;;;;;;;11.36;100.00;102046.56;5268845;28;20110;-68
2023/06/02 06:50:53;;;;;;;11.73;3.00;;;;;;;11.38;100.00;102045.50;5278304;28;20067;-68
2023/06/02 06:53:26;;;;;;;16.42;3.50;;;;;;;11.41;100.00;102047.16;5273253;28;20082;-68
2023/06/02 06:55:59;;;;;;;12.52;3.17;;;;;;;11.34;100.00;102048.47;5267326;28;20036;-68
2023/06/02 06:58:30;;;;;;;16.80;2.90;;;;;;;11.39;100.00;102046.38;5264667;28;20032;-68
2023/06/02 07:01:02;;;;;;;14.02;2.85;;;;;;;11.43;100.00;102047.03;5268019;28;20032;-68
2023/06/02 07:03:33;;;;;;;13.15;2.92;;;;;;;11.44;100.00;102046.09;5274101;28;20458;-68
2023/06/02 07:06:05;;;;;;;12.60;2.80;;;;;;;11.46;100.00;102061.06;5266532;28;20090;-68
2023/06/02 07:08:36;;;;;;;10.98;2.60;;;;;;;11.55;100.00;102055.16;5268359;28;20424;-68
2023/06/02 07:11:08;;;;;;;14.18;3.88;;;;;;;11.58;100.00;102044.31;5262376;28;20067;-68
2023/06/02 07:13:40;;;;;;;13.63;3.08;;;;;;;11.68;100.00;102049.94;5263413;28;20033;-68
2023/06/02 07:16:11;;;;;;;12.68;2.70;;;;;;;11.71;100.00;102051.53;5262096;28;20454;-68
2023/06/02 07:18:43;;;;;;;12.48;2.97;;;;;;;11.75;100.00;102042.38;5268663;28;20115;-68
2023/06/02 07:21:14;;;;;;;12.43;3.60;;;;;;;11.82;100.00;102046.41;5270102;28;20502;-68
2023/06/02 07:23:45;;;;;;;20.02;3.45;;;;;;;12.01;100.00;102050.63;5276555;28;20017;-67
2023/06/02 07:26:17;;;;;;;11.55;2.78;;;;;;;12.03;100.00;102051.41;5276179;28;20031;-69
2023/06/02 07:28:48;;;;;;;9.35;2.58;;;;;;;12.03;100.00;102057.59;5276144;28;20024;-68
2023/06/02 07:31:20;;;;;;;9.57;2.35;;;;;;;12.00;100.00;102062.28;5275096;28;20075;-67
2023/06/02 07:33:52;;;;;;;11.52;2.47;;;;;;;12.01;100.00;102061.34;5272054;28;20379;-68
2023/06/02 07:36:24;;;;;;;13.68;3.25;;;;;;;12.10;100.00;102069.63;5274796;28;20041;-68
2023/06/02 07:38:55;;;;;;;12.50;2.90;;;;;;;12.17;100.00;102062.06;5273996;28;20098;-68
2023/06/02 07:41:27;;;;;;;9.75;3.05;;;;;;;12.25;100.00;102056.22;5274798;28;20086;-68
2023/06/02 07:43:59;;;;;;;10.00;2.42;;;;;;;12.22;100.00;102059.97;5275030;28;20021;-68
2023/06/02 07:46:32;;;;;;;9.48;2.63;;;;;;;12.22;100.00;102051.09;5273410;28;20024;-68
2023/06/02 07:49:03;;;;;;;13.77;2.70;;;;;;;12.33;100.00;102054.78;5272761;28;20074;-68
2023/06/02 07:51:35;;;;;;;10.45;2.67;;;;;;;12.38;100.00;102053.63;5273861;28;20028;-68
2023/06/02 07:54:07;;;;;;;9.77;2.50;;;;;;;12.34;100.00;102048.44;5272207;28;20060;-68
2023/06/02 07:56:38;;;;;;;11.45;2.67;;;;;;;12.47;100.00;102045.84;5275305;28;20082;-68
2023/06/02 07:59:11;;;;;;;12.85;2.53;;;;;;;12.54;100.00;102055.19;5270296;28;20036;-68
2023/06/02 08:01:43;;;;;;;13.43;3.00;;;;;;;12.55;100.00;102050.69;5274155;28;20036;-67
2023/06/02 08:04:14;;;;;;;9.52;2.63;;;;;;;12.70;100.00;102047.00;5274102;28;20029;-68
2023/06/02 08:06:46;;;;;;;11.98;2.72;;;;;;;12.77;100.00;102050.16;5271714;28;20139;-68
2023/06/02 08:09:17;;;;;;;13.23;2.72;;;;;;;12.91;100.00;102046.53;5272569;28;20054;-68
2023/06/02 08:11:49;;;;;;;10.57;2.75;;;;;;;13.02;100.00;102038.66;5272865;28;20494;-68
2023/06/02 08:14:21;;;;;;;12.85;3.10;;;;;;;12.96;100.00;102049.75;5274978;28;20020;-68
2023/06/02 08:16:55;;;;;;;10.98;2.65;;;;;;;12.99;100.00;102051.38;5274930;28;20355;-69
2023/06/02 08:19:26;;;;;;;15.48;3.20;;;;;;;12.97;100.00;102048.81;5273563;28;20028;-68
2023/06/02 08:21:57;;;;;;;13.20;2.90;;;;;;;12.98;100.00;102047.81;5274265;28;20067;-69
2023/06/02 08:24:29;;;;;;;12.45;2.47;;;;;;;12.98;100.00;102055.00;5272808;28;20028;-68
2023/06/02 08:27:00;;;;;;;12.65;3.83;;;;;;;12.94;100.00;102049.00;5273543;28;20033;-68
2023/06/02 08:29:32;;;;;;;11.90;2.50;;;;;;;13.06;100.00;102050.88;5272826;28;20379;-68
2023/06/02 08:32:04;;;;;;;9.55;2.60;;;;;;;13.16;100.00;102050.25;5269748;28;20032;-69
2023/06/02 08:34:36;;;;;;;9.93;2.88;;;;;;;13.26;100.00;102054.00;5275009;28;20055;-68
2023/06/02 08:37:09;;;;;;;8.55;2.78;;;;;;;13.31;100.00;102055.44;5274590;28;20032;-68
2023/06/02 08:39:40;;;;;;;9.80;2.43;;;;;;;13.39;100.00;102057.59;5271552;28;20028;-68
2023/06/02 08:42:13;;;;;;;9.80;2.63;;;;;;;13.39;100.00;102054.91;5269696;28;20033;-69
2023/06/02 08:44:44;;;;;;;13.43;2.58;;;;;;;13.38;100.00;102050.50;5271302;28;20098;-68
2023/06/02 08:47:22;;;;;;;9.85;2.75;;;;;;;13.42;100.00;102045.78;5273608;28;20036;-68
2023/06/02 08:49:53;;;;;;;9.05;2.90;;;;;;;13.42;100.00;102057.34;5273208;28;20669;-69
2023/06/02 08:52:26;;;;;;;11.93;3.25;;;;;;;13.39;100.00;102041.50;5274304;28;20029;-69
2023/06/02 08:54:57;;;;;;;15.27;3.35;;;;;;;13.46;100.00;102049.97;5270038;28;20025;-68
2023/06/02 08:57:29;;;;;;;12.38;2.80;;;;;;;13.43;100.00;102048.38;5270731;28;20325;-68
2023/06/02 09:00:01;;;;;;;11.23;3.53;;;;;;;13.51;100.00;102045.16;5269203;28;20375;-69
2023/06/02 09:02:32;;;;;;;11.25;2.65;;;;;;;13.72;100.00;102038.28;5271159;28;20024;-68
2023/06/02 09:05:05;;;;;;;9.27;2.63;;;;;;;13.71;100.00;102044.63;5267602;28;20051;-68
2023/06/02 09:07:36;;;;;;;13.45;3.15;;;;;;;13.73;100.00;102036.47;5270290;28;20032;-69
2023/06/02 09:10:08;;;;;;;12.15;2.60;;;;;;;13.89;100.00;102034.41;5272265;28;20020;-69
2023/06/02 09:12:47;;;;;;;10.00;2.60;;;;;;;13.91;100.00;102039.66;5272496;28;20036;-69
2023/06/02 09:15:19;;;;;;;11.65;2.90;;;;;;;13.93;100.00;102041.25;5272543;28;20094;-69
2023/06/02 09:17:51;;;;;;;15.00;2.83;;;;;;;13.94;100.00;102034.09;5269082;28;20366;-69
2023/06/02 09:20:30;;;;;;;12.50;2.70;;;;;;;14.13;100.00;102044.31;5270359;28;20060;-69
2023/06/02 09:23:02;;;;;;;16.00;4.22;;;;;;;14.09;100.00;102042.84;5274176;28;20089;-69
2023/06/02 09:25:35;;;;;;;12.45;3.60;;;;;;;14.14;100.00;102037.16;5271804;28;20063;-68
2023/06/02 09:28:09;;;;;;;10.38;3.50;;;;;;;14.25;100.00;102030.03;5266990;28;20081;-69
2023/06/02 09:30:40;;;;;;;11.35;2.97;;;;;;;14.26;100.00;102030.88;5272777;28;21450;-69
2023/06/02 09:33:11;;;;;;;8.52;2.70;;;;;;;14.32;100.00;102031.31;5269485;28;20024;-69
2023/06/02 09:35:46;;;;;;;12.55;2.92;;;;;;;14.36;100.00;102033.75;5266865;28;20028;-69
2023/06/02 09:38:18;;;;;;;11.05;2.92;;;;;;;14.33;100.00;102032.16;5269548;28;20063;-69
2023/06/02 09:40:51;;;;;;;15.15;3.13;;;;;;;14.32;100.00;102022.38;5266955;28;20035;-69
2023/06/02 09:43:30;;;;;;;9.05;2.88;;;;;;;14.38;100.00;102031.78;5272801;28;20040;-69
2023/06/02 09:46:03;;;;;;;9.57;2.75;;;;;;;14.66;100.00;102027.97;5271572;28;20029;-69
2023/06/02 09:48:35;;;;;;;9.85;3.03;;;;;;;14.80;100.00;102024.22;5270187;28;20904;-69
2023/06/02 09:51:25;;;;;;;11.40;3.10;;;;;;;14.85;100.00;102016.69;5269568;28;20025;-69
2023/06/02 09:53:58;;;;;;;12.43;3.20;;;;;;;14.94;100.00;102020.47;5270888;28;20032;-69
2023/06/02 09:56:34;;;;;;;10.45;3.45;;;;;;;14.94;100.00;102017.78;5266944;28;20107;-69
2023/06/02 09:59:06;;;;;;;8.80;3.13;;;;;;;15.24;100.00;102018.13;5271688;28;20032;-69
2023/06/02 10:01:37;;;;;;;13.70;3.22;;;;;;;15.16;100.00;102017.03;5271093;28;20034;-69
2023/06/02 10:04:10;;;;;;;13.65;3.10;;;;;;;15.46;100.00;102013.78;5270168;28;20033;-69
2023/06/02 10:07:06;;;;;;;14.65;3.72;;;;;;;15.62;100.00;102018.78;5271584;28;21376;-69
2023/06/02 10:09:40;;;;;;;11.50;3.30;;;;;;;15.68;100.00;102010.22;5268215;28;20032;-69
2023/06/02 10:12:20;;;;;;;11.23;3.00;;;;;;;15.70;100.00;102008.28;5269628;28;20060;-70
2023/06/02 10:15:27;;;;;;;8.98;3.00;;;;;;;15.73;100.00;102013.44;5266642;28;20447;-69
2023/06/02 10:18:20;;;;;;;12.63;3.88;;;;;;;15.75;100.00;102011.50;5270660;28;20032;-69
2023/06/02 10:21:03;;;;;;;11.60;3.00;;;;;;;15.60;100.00;102002.78;5272594;28;20044;-70
2023/06/02 10:23:49;;;;;;;12.48;3.78;;;;;;;15.61;100.00;102007.19;5271358;28;20028;-69
2023/06/02 10:26:27;;;;;;;11.88;3.40;;;;;;;15.59;100.00;102005.56;5271710;28;20378;-69
2023/06/02 10:29:02;;;;;;;10.35;3.10;;;;;;;15.52;100.00;102015.97;5274135;28;20037;-69
2023/06/02 10:31:34;;;;;;;10.82;3.50;;;;;;;15.67;100.00;102017.44;5272925;28;20024;-70
2023/06/02 10:34:05;;;;;;;12.57;2.72;;;;;;;15.95;100.00;102014.41;5276577;28;20129;-69
2023/06/02 10:37:05;;;;;;;10.82;2.83;;;;;;;15.82;100.00;102011.84;5273766;28;20548;-69
2023/06/02 10:39:40;;;;;;;11.68;2.95;;;;;;;15.79;100.00;102012.97;5269036;28;20024;-69
2023/06/02 10:42:13;;;;;;;11.93;2.95;;;;;;;15.81;100.00;102013.69;5273778;28;20049;-69
2023/06/02 10:44:47;;;;;;;8.68;3.28;;;;;;;15.90;100.00;102008.53;5276498;28;20016;-69
2023/06/02 10:47:18;;;;;;;;;;;;;;;16.10;100.00;102005.09;5274546;28;20028;-69
2023/06/02 10:50:01;;;;;;;11.07;3.38;;;;;;;16.23;100.00;102004.97;5266285;28;19923;-69
2023/06/02 10:52:54;;;;;;;10.25;3.03;;;;;;;16.48;100.00;102009.16;5275582;28;20032;-69
2023/06/02 10:55:28;;;;;;;9.13;3.05;;;;;;;16.74;100.00;102012.38;5268612;28;20946;-69
2023/06/02 10:58:12;;;;;;;10.38;3.17;;;;;;;16.67;100.00;102008.50;5271676;28;20048;-69
2023/06/02 11:00:45;;;;;;;8.68;2.83;;;;;;;16.47;100.00;102018.22;5270611;28;20024;-69
2023/06/02 11:03:22;;;;;;;10.75;3.03;;;;;;;16.36;100.00;102015.59;5274026;28;20094;-69
2023/06/02 11:06:20;;;;;;;10.15;3.30;;;;;;;16.39;100.00;102009.91;5270649;28;20356;-69
2023/06/02 11:08:53;;;;;;;9.43;3.10;;;;;;;16.48;100.00;102008.31;5273550;28;20043;-69
2023/06/02 11:11:50;;;;;;;10.38;3.40;;;;;;;16.58;100.00;102001.16;5269549;28;20036;-69
2023/06/02 11:14:22;;;;;;;10.73;3.40;;;;;;;16.71;100.00;101992.91;5274108;28;20024;-69
2023/06/02 11:17:31;;;;;;;11.45;3.47;;;;;;;16.87;100.00;102000.59;5273926;28;20028;-69
2023/06/02 11:20:06;;;;;;;12.48;3.28;;;;;;;16.77;100.00;102009.41;5272480;28;20360;-69
2023/06/02 11:22:38;;;;;;;10.75;3.13;;;;;;;16.67;100.00;102005.78;5277036;28;20486;-69
2023/06/02 11:25:11;;;;;;;10.35;3.65;;;;;;;16.88;100.00;102000.47;5268699;28;20039;-69
2023/06/02 11:27:46;;;;;;;10.88;3.40;;;;;;;17.01;100.00;101990.34;5272076;28;20024;-69
2023/06/02 11:30:18;;;;;;;12.30;3.58;;;;;;;17.14;100.00;102000.91;5271697;28;20032;-69
2023/06/02 11:32:51;;;;;;;8.85;2.97;;;;;;;17.14;100.00;102010.84;5273414;28;20036;-68
2023/06/02 11:35:25;;;;;;;10.13;3.50;;;;;;;17.16;100.00;102004.34;5276496;28;20029;-69
2023/06/02 11:38:06;;;;;;;11.25;3.58;;;;;;;17.31;100.00;102004.00;5268155;28;20037;-69
2023/06/02 11:40:38;;;;;;;12.70;3.72;;;;;;;17.32;100.00;102003.88;5262007;28;20526;-69